sensor_id;sensor_type;location;lat;lon;timestamp;temperature;humidity
82993;DHT22;72811;50.844;3.228;2023-09-19T00:00:37;15.00;71.70
82993;DHT22;72811;50.844;3.228;2023-09-19T00:03:03;14.80;72.20
82993;DHT22;72811;50.844;3.228;2023-09-19T00:05:37;14.80;72.50
82993;DHT22;72811;50.844;3.228;2023-09-19T00:08:11;14.70;73.30
82993;DHT22;72811;50.844;3.228;2023-09-19T00:10:39;14.70;74.00
82993;DHT22;72811;50.844;3.228;2023-09-19T00:13:06;14.70;73.90
82993;DHT22;72811;50.844;3.228;2023-09-19T00:15:41;14.70;74.70
82993;DHT22;72811;50.844;3.228;2023-09-19T00:18:08;14.70;74.90
82993;DHT22;72811;50.844;3.228;2023-09-19T00:20:38;14.70;75.00
82993;DHT22;72811;50.844;3.228;2023-09-19T00:23:05;14.70;74.80
82993;DHT22;72811;50.844;3.228;2023-09-19T00:25:31;14.70;74.90
82993;DHT22;72811;50.844;3.228;2023-09-19T00:27:58;14.80;74.60
82993;DHT22;72811;50.844;3.228;2023-09-19T00:30:24;14.80;74.70
82993;DHT22;72811;50.844;3.228;2023-09-19T00:32:50;14.80;74.80
82993;DHT22;72811;50.844;3.228;2023-09-19T00:35:23;14.80;74.40
82993;DHT22;72811;50.844;3.228;2023-09-19T00:37:53;14.90;74.50
82993;DHT22;72811;50.844;3.228;2023-09-19T00:40:19;14.90;74.20
82993;DHT22;72811;50.844;3.228;2023-09-19T00:42:47;14.90;74.30
82993;DHT22;72811;50.844;3.228;2023-09-19T00:45:15;14.90;74.40
82993;DHT22;72811;50.844;3.228;2023-09-19T00:47:44;14.80;74.20
82993;DHT22;72811;50.844;3.228;2023-09-19T00:50:18;14.80;74.30
82993;DHT22;72811;50.844;3.228;2023-09-19T00:52:45;14.80;74.40
82993;DHT22;72811;50.844;3.228;2023-09-19T00:55:12;14.90;74.40
82993;DHT22;72811;50.844;3.228;2023-09-19T00:57:41;14.90;74.10
82993;DHT22;72811;50.844;3.228;2023-09-19T01:00:08;14.90;73.30
82993;DHT22;72811;50.844;3.228;2023-09-19T01:02:42;15.00;73.60
82993;DHT22;72811;50.844;3.228;2023-09-19T01:05:11;15.00;72.80
82993;DHT22;72811;50.844;3.228;2023-09-19T01:07:39;15.10;72.60
82993;DHT22;72811;50.844;3.228;2023-09-19T01:10:19;15.10;72.20
82993;DHT22;72811;50.844;3.228;2023-09-19T01:15:59;15.20;71.90
82993;DHT22;72811;50.844;3.228;2023-09-19T01:31:52;15.30;71.00
82993;DHT22;72811;50.844;3.228;2023-09-19T01:34:20;15.30;70.90
82993;DHT22;72811;50.844;3.228;2023-09-19T01:36:47;15.30;70.70
82993;DHT22;72811;50.844;3.228;2023-09-19T01:39:14;15.30;70.80
82993;DHT22;72811;50.844;3.228;2023-09-19T01:42:01;15.30;71.00
82993;DHT22;72811;50.844;3.228;2023-09-19T01:47:52;15.30;71.50
82993;DHT22;72811;50.844;3.228;2023-09-19T01:50:56;15.20;72.50
82993;DHT22;72811;50.844;3.228;2023-09-19T01:53:27;15.20;73.00
82993;DHT22;72811;50.844;3.228;2023-09-19T01:55:57;15.10;73.30
82993;DHT22;72811;50.844;3.228;2023-09-19T01:58:42;15.10;73.70
82993;DHT22;72811;50.844;3.228;2023-09-19T02:01:12;15.00;74.30
82993;DHT22;72811;50.844;3.228;2023-09-19T02:03:41;15.00;75.30
82993;DHT22;72811;50.844;3.228;2023-09-19T02:06:07;15.10;75.70
82993;DHT22;72811;50.844;3.228;2023-09-19T02:08:37;15.10;76.10
82993;DHT22;72811;50.844;3.228;2023-09-19T02:11:03;15.00;76.90
82993;DHT22;72811;50.844;3.228;2023-09-19T02:13:28;14.90;77.70
82993;DHT22;72811;50.844;3.228;2023-09-19T02:15:55;14.80;78.30
82993;DHT22;72811;50.844;3.228;2023-09-19T02:18:21;14.80;78.40
82993;DHT22;72811;50.844;3.228;2023-09-19T02:20:47;14.90;78.90
82993;DHT22;72811;50.844;3.228;2023-09-19T02:23:13;14.90;79.60
82993;DHT22;72811;50.844;3.228;2023-09-19T02:25:39;14.80;79.50
82993;DHT22;72811;50.844;3.228;2023-09-19T02:28:06;14.90;81.10
82993;DHT22;72811;50.844;3.228;2023-09-19T02:30:33;14.80;81.10
82993;DHT22;72811;50.844;3.228;2023-09-19T02:32:59;14.80;81.70
82993;DHT22;72811;50.844;3.228;2023-09-19T02:35:28;14.70;81.50
82993;DHT22;72811;50.844;3.228;2023-09-19T02:37:58;14.70;81.80
82993;DHT22;72811;50.844;3.228;2023-09-19T02:40:24;14.70;81.30
82993;DHT22;72811;50.844;3.228;2023-09-19T02:42:55;14.80;81.00
82993;DHT22;72811;50.844;3.228;2023-09-19T02:45:21;14.90;81.00
82993;DHT22;72811;50.844;3.228;2023-09-19T02:47:49;14.80;80.90
82993;DHT22;72811;50.844;3.228;2023-09-19T02:50:15;14.90;81.20
82993;DHT22;72811;50.844;3.228;2023-09-19T02:52:42;14.90;80.60
82993;DHT22;72811;50.844;3.228;2023-09-19T02:55:17;14.80;80.00
82993;DHT22;72811;50.844;3.228;2023-09-19T02:57:49;14.60;80.30
82993;DHT22;72811;50.844;3.228;2023-09-19T03:00:18;14.60;80.40
82993;DHT22;72811;50.844;3.228;2023-09-19T03:02:49;14.60;80.20
82993;DHT22;72811;50.844;3.228;2023-09-19T03:05:14;14.60;79.80
82993;DHT22;72811;50.844;3.228;2023-09-19T03:07:41;14.70;79.60
82993;DHT22;72811;50.844;3.228;2023-09-19T03:10:09;14.60;79.60
82993;DHT22;72811;50.844;3.228;2023-09-19T03:12:35;14.60;79.10
82993;DHT22;72811;50.844;3.228;2023-09-19T03:15:02;14.70;79.10
82993;DHT22;72811;50.844;3.228;2023-09-19T03:17:33;14.50;79.40
82993;DHT22;72811;50.844;3.228;2023-09-19T03:19:58;14.50;80.00
82993;DHT22;72811;50.844;3.228;2023-09-19T03:22:25;14.40;80.30
82993;DHT22;72811;50.844;3.228;2023-09-19T03:24:55;14.40;80.00
82993;DHT22;72811;50.844;3.228;2023-09-19T03:27:26;14.40;80.60
82993;DHT22;72811;50.844;3.228;2023-09-19T03:29:53;14.30;80.80
82993;DHT22;72811;50.844;3.228;2023-09-19T03:32:19;14.20;81.30
82993;DHT22;72811;50.844;3.228;2023-09-19T03:34:45;14.30;81.20
82993;DHT22;72811;50.844;3.228;2023-09-19T03:37:15;14.20;81.80
82993;DHT22;72811;50.844;3.228;2023-09-19T03:39:40;14.20;82.10
82993;DHT22;72811;50.844;3.228;2023-09-19T03:42:06;14.20;82.10
82993;DHT22;72811;50.844;3.228;2023-09-19T03:44:33;14.20;82.20
82993;DHT22;72811;50.844;3.228;2023-09-19T03:46:59;14.10;82.50
82993;DHT22;72811;50.844;3.228;2023-09-19T03:49:27;14.10;82.80
82993;DHT22;72811;50.844;3.228;2023-09-19T03:51:53;14.10;83.00
82993;DHT22;72811;50.844;3.228;2023-09-19T03:54:18;14.10;83.20
82993;DHT22;72811;50.844;3.228;2023-09-19T03:56:45;14.10;83.40
82993;DHT22;72811;50.844;3.228;2023-09-19T03:59:13;14.00;83.70
82993;DHT22;72811;50.844;3.228;2023-09-19T04:01:39;14.00;83.90
82993;DHT22;72811;50.844;3.228;2023-09-19T04:04:08;14.00;84.30
82993;DHT22;72811;50.844;3.228;2023-09-19T04:06:35;14.00;85.30
82993;DHT22;72811;50.844;3.228;2023-09-19T04:09:03;14.00;84.60
82993;DHT22;72811;50.844;3.228;2023-09-19T04:11:32;14.00;84.90
82993;DHT22;72811;50.844;3.228;2023-09-19T04:13:59;13.90;85.20
82993;DHT22;72811;50.844;3.228;2023-09-19T04:16:25;13.90;85.50
82993;DHT22;72811;50.844;3.228;2023-09-19T04:18:50;14.00;85.50
82993;DHT22;72811;50.844;3.228;2023-09-19T04:21:16;14.00;85.50
82993;DHT22;72811;50.844;3.228;2023-09-19T04:23:42;14.00;85.60
82993;DHT22;72811;50.844;3.228;2023-09-19T04:26:09;14.00;85.70
82993;DHT22;72811;50.844;3.228;2023-09-19T04:28:35;14.10;85.60
82993;DHT22;72811;50.844;3.228;2023-09-19T04:31:04;14.10;85.60
82993;DHT22;72811;50.844;3.228;2023-09-19T04:33:29;14.10;85.40
82993;DHT22;72811;50.844;3.228;2023-09-19T04:35:58;14.10;85.40
82993;DHT22;72811;50.844;3.228;2023-09-19T04:38:26;14.00;85.50
82993;DHT22;72811;50.844;3.228;2023-09-19T04:40:57;14.10;85.70
82993;DHT22;72811;50.844;3.228;2023-09-19T04:43:29;14.00;85.60
82993;DHT22;72811;50.844;3.228;2023-09-19T04:45:55;14.00;86.00
82993;DHT22;72811;50.844;3.228;2023-09-19T04:48:25;14.00;86.20
82993;DHT22;72811;50.844;3.228;2023-09-19T04:50:57;14.00;85.80
82993;DHT22;72811;50.844;3.228;2023-09-19T04:53:23;14.00;85.80
82993;DHT22;72811;50.844;3.228;2023-09-19T04:55:52;14.00;85.70
82993;DHT22;72811;50.844;3.228;2023-09-19T04:58:22;14.10;85.50
82993;DHT22;72811;50.844;3.228;2023-09-19T05:00:51;14.00;85.60
82993;DHT22;72811;50.844;3.228;2023-09-19T05:03:17;14.00;85.60
82993;DHT22;72811;50.844;3.228;2023-09-19T05:05:43;14.10;85.50
82993;DHT22;72811;50.844;3.228;2023-09-19T05:08:08;14.10;85.30
82993;DHT22;72811;50.844;3.228;2023-09-19T05:10:38;14.10;85.10
82993;DHT22;72811;50.844;3.228;2023-09-19T05:13:04;14.10;85.10
82993;DHT22;72811;50.844;3.228;2023-09-19T05:15:30;14.10;85.00
82993;DHT22;72811;50.844;3.228;2023-09-19T05:17:56;14.10;85.10
82993;DHT22;72811;50.844;3.228;2023-09-19T05:20:23;14.10;85.20
82993;DHT22;72811;50.844;3.228;2023-09-19T05:23:06;14.10;85.20
82993;DHT22;72811;50.844;3.228;2023-09-19T05:25:39;14.20;85.30
82993;DHT22;72811;50.844;3.228;2023-09-19T05:28:09;14.20;85.40
82993;DHT22;72811;50.844;3.228;2023-09-19T05:30:37;14.30;85.20
82993;DHT22;72811;50.844;3.228;2023-09-19T05:33:11;14.30;85.20
82993;DHT22;72811;50.844;3.228;2023-09-19T05:35:37;14.30;85.10
82993;DHT22;72811;50.844;3.228;2023-09-19T05:38:05;14.30;85.10
82993;DHT22;72811;50.844;3.228;2023-09-19T05:40:36;14.30;85.20
82993;DHT22;72811;50.844;3.228;2023-09-19T05:43:13;14.30;85.30
82993;DHT22;72811;50.844;3.228;2023-09-19T05:45:40;14.40;85.60
82993;DHT22;72811;50.844;3.228;2023-09-19T05:48:11;14.40;85.40
82993;DHT22;72811;50.844;3.228;2023-09-19T05:50:39;14.30;85.40
82993;DHT22;72811;50.844;3.228;2023-09-19T05:53:05;14.30;85.50
82993;DHT22;72811;50.844;3.228;2023-09-19T05:55:32;14.30;85.70
82993;DHT22;72811;50.844;3.228;2023-09-19T05:57:58;14.30;85.60
82993;DHT22;72811;50.844;3.228;2023-09-19T06:00:25;14.40;85.70
82993;DHT22;72811;50.844;3.228;2023-09-19T06:02:59;14.30;85.80
82993;DHT22;72811;50.844;3.228;2023-09-19T06:05:27;14.30;85.70
82993;DHT22;72811;50.844;3.228;2023-09-19T06:07:55;14.40;85.60
82993;DHT22;72811;50.844;3.228;2023-09-19T06:10:26;14.40;85.20
82993;DHT22;72811;50.844;3.228;2023-09-19T06:12:53;14.40;85.20
82993;DHT22;72811;50.844;3.228;2023-09-19T06:15:20;14.40;85.40
82993;DHT22;72811;50.844;3.228;2023-09-19T06:17:50;14.40;85.20
82993;DHT22;72811;50.844;3.228;2023-09-19T06:20:16;14.50;84.60
82993;DHT22;72811;50.844;3.228;2023-09-19T06:22:44;14.50;84.60
82993;DHT22;72811;50.844;3.228;2023-09-19T06:25:11;14.60;84.10
82993;DHT22;72811;50.844;3.228;2023-09-19T06:27:41;14.70;83.80
82993;DHT22;72811;50.844;3.228;2023-09-19T06:30:08;14.80;83.80
82993;DHT22;72811;50.844;3.228;2023-09-19T06:32:34;14.80;83.20
82993;DHT22;72811;50.844;3.228;2023-09-19T06:35:01;14.70;83.20
82993;DHT22;72811;50.844;3.228;2023-09-19T06:37:32;14.90;82.90
82993;DHT22;72811;50.844;3.228;2023-09-19T06:40:00;15.00;82.50
82993;DHT22;72811;50.844;3.228;2023-09-19T06:42:26;15.00;82.00
82993;DHT22;72811;50.844;3.228;2023-09-19T06:44:57;15.10;81.70
82993;DHT22;72811;50.844;3.228;2023-09-19T06:47:23;15.00;82.00
82993;DHT22;72811;50.844;3.228;2023-09-19T06:49:51;15.10;81.70
82993;DHT22;72811;50.844;3.228;2023-09-19T06:52:17;15.20;81.00
82993;DHT22;72811;50.844;3.228;2023-09-19T06:54:45;15.30;80.70
82993;DHT22;72811;50.844;3.228;2023-09-19T06:57:10;15.50;80.50
82993;DHT22;72811;50.844;3.228;2023-09-19T06:59:36;15.50;79.50
82993;DHT22;72811;50.844;3.228;2023-09-19T07:02:03;15.50;79.50
82993;DHT22;72811;50.844;3.228;2023-09-19T07:04:31;15.60;78.90
82993;DHT22;72811;50.844;3.228;2023-09-19T07:06:58;15.50;78.90
82993;DHT22;72811;50.844;3.228;2023-09-19T07:09:23;15.70;78.50
82993;DHT22;72811;50.844;3.228;2023-09-19T07:11:53;15.80;77.90
82993;DHT22;72811;50.844;3.228;2023-09-19T07:14:19;16.00;77.00
82993;DHT22;72811;50.844;3.228;2023-09-19T07:16:44;16.20;76.70
82993;DHT22;72811;50.844;3.228;2023-09-19T07:19:10;16.20;76.40
82993;DHT22;72811;50.844;3.228;2023-09-19T07:21:36;16.40;75.90
82993;DHT22;72811;50.844;3.228;2023-09-19T07:24:04;16.30;75.60
82993;DHT22;72811;50.844;3.228;2023-09-19T07:26:30;16.40;75.20
82993;DHT22;72811;50.844;3.228;2023-09-19T07:28:56;16.40;75.20
82993;DHT22;72811;50.844;3.228;2023-09-19T07:31:23;16.50;75.10
82993;DHT22;72811;50.844;3.228;2023-09-19T07:33:50;16.50;74.70
82993;DHT22;72811;50.844;3.228;2023-09-19T07:36:17;16.70;74.30
82993;DHT22;72811;50.844;3.228;2023-09-19T07:38:42;16.80;73.80
82993;DHT22;72811;50.844;3.228;2023-09-19T07:41:09;17.10;72.30
82993;DHT22;72811;50.844;3.228;2023-09-19T07:43:37;17.10;71.30
82993;DHT22;72811;50.844;3.228;2023-09-19T07:46:09;17.40;70.80
82993;DHT22;72811;50.844;3.228;2023-09-19T07:48:36;17.50;70.80
82993;DHT22;72811;50.844;3.228;2023-09-19T07:51:05;17.40;70.80
82993;DHT22;72811;50.844;3.228;2023-09-19T07:53:32;16.90;72.30
82993;DHT22;72811;50.844;3.228;2023-09-19T07:56:08;17.00;71.90
82993;DHT22;72811;50.844;3.228;2023-09-19T07:58:34;17.00;72.00
82993;DHT22;72811;50.844;3.228;2023-09-19T08:01:08;16.90;72.80
82993;DHT22;72811;50.844;3.228;2023-09-19T08:03:35;17.00;72.60
82993;DHT22;72811;50.844;3.228;2023-09-19T08:06:06;17.30;71.10
82993;DHT22;72811;50.844;3.228;2023-09-19T08:08:33;17.40;70.10
82993;DHT22;72811;50.844;3.228;2023-09-19T08:11:03;17.50;69.40
82993;DHT22;72811;50.844;3.228;2023-09-19T08:13:41;17.60;69.60
82993;DHT22;72811;50.844;3.228;2023-09-19T08:16:18;17.90;68.20
82993;DHT22;72811;50.844;3.228;2023-09-19T08:18:48;18.10;67.10
82993;DHT22;72811;50.844;3.228;2023-09-19T08:21:14;18.20;67.30
82993;DHT22;72811;50.844;3.228;2023-09-19T08:23:42;18.00;67.40
82993;DHT22;72811;50.844;3.228;2023-09-19T08:26:08;18.20;67.30
82993;DHT22;72811;50.844;3.228;2023-09-19T08:28:35;18.50;65.10
82993;DHT22;72811;50.844;3.228;2023-09-19T08:31:02;18.60;65.20
82993;DHT22;72811;50.844;3.228;2023-09-19T08:33:35;18.60;65.20
82993;DHT22;72811;50.844;3.228;2023-09-19T08:36:03;18.70;63.90
82993;DHT22;72811;50.844;3.228;2023-09-19T08:38:35;18.30;65.80
82993;DHT22;72811;50.844;3.228;2023-09-19T08:41:04;18.40;66.00
82993;DHT22;72811;50.844;3.228;2023-09-19T08:43:30;18.30;66.10
82993;DHT22;72811;50.844;3.228;2023-09-19T08:46:20;18.50;65.60
82993;DHT22;72811;50.844;3.228;2023-09-19T08:48:57;18.40;66.30
82993;DHT22;72811;50.844;3.228;2023-09-19T08:51:39;18.20;66.70
82993;DHT22;72811;50.844;3.228;2023-09-19T08:54:17;18.70;65.30
82993;DHT22;72811;50.844;3.228;2023-09-19T08:56:48;19.10;63.80
82993;DHT22;72811;50.844;3.228;2023-09-19T08:59:15;19.80;62.30
82993;DHT22;72811;50.844;3.228;2023-09-19T09:01:44;19.80;61.80
82993;DHT22;72811;50.844;3.228;2023-09-19T09:04:11;19.70;62.30
82993;DHT22;72811;50.844;3.228;2023-09-19T09:06:39;19.00;63.30
82993;DHT22;72811;50.844;3.228;2023-09-19T09:09:08;18.80;64.10
82993;DHT22;72811;50.844;3.228;2023-09-19T09:11:34;19.10;63.70
82993;DHT22;72811;50.844;3.228;2023-09-19T09:14:02;19.10;63.50
82993;DHT22;72811;50.844;3.228;2023-09-19T09:16:32;19.00;63.90
82993;DHT22;72811;50.844;3.228;2023-09-19T09:18:59;19.00;64.20
82993;DHT22;72811;50.844;3.228;2023-09-19T09:21:25;19.20;64.00
82993;DHT22;72811;50.844;3.228;2023-09-19T09:23:51;19.30;63.50
82993;DHT22;72811;50.844;3.228;2023-09-19T09:29:05;20.40;59.10
82993;DHT22;72811;50.844;3.228;2023-09-19T09:31:31;20.10;59.50
82993;DHT22;72811;50.844;3.228;2023-09-19T09:34:08;20.50;58.60
82993;DHT22;72811;50.844;3.228;2023-09-19T09:36:36;21.20;56.30
82993;DHT22;72811;50.844;3.228;2023-09-19T09:39:03;21.60;54.90
82993;DHT22;72811;50.844;3.228;2023-09-19T09:41:50;21.60;54.50
82993;DHT22;72811;50.844;3.228;2023-09-19T09:44:17;21.80;54.10
82993;DHT22;72811;50.844;3.228;2023-09-19T09:46:47;21.90;54.50
82993;DHT22;72811;50.844;3.228;2023-09-19T09:49:26;22.60;52.40
82993;DHT22;72811;50.844;3.228;2023-09-19T09:52:04;22.60;52.60
82993;DHT22;72811;50.844;3.228;2023-09-19T09:54:34;22.50;52.60
82993;DHT22;72811;50.844;3.228;2023-09-19T09:57:07;23.30;50.90
82993;DHT22;72811;50.844;3.228;2023-09-19T09:59:55;23.20;51.80
82993;DHT22;72811;50.844;3.228;2023-09-19T10:02:37;22.70;50.80
82993;DHT22;72811;50.844;3.228;2023-09-19T10:05:17;23.10;52.10
82993;DHT22;72811;50.844;3.228;2023-09-19T10:07:45;23.90;48.80
82993;DHT22;72811;50.844;3.228;2023-09-19T10:10:40;23.70;49.20
82993;DHT22;72811;50.844;3.228;2023-09-19T10:13:13;23.70;49.10
82993;DHT22;72811;50.844;3.228;2023-09-19T10:15:46;24.10;48.50
82993;DHT22;72811;50.844;3.228;2023-09-19T10:18:24;24.40;47.30
82993;DHT22;72811;50.844;3.228;2023-09-19T10:20:51;25.50;44.10
82993;DHT22;72811;50.844;3.228;2023-09-19T10:23:18;25.00;44.20
82993;DHT22;72811;50.844;3.228;2023-09-19T10:25:53;23.50;49.60
82993;DHT22;72811;50.844;3.228;2023-09-19T10:28:20;23.50;48.60
82993;DHT22;72811;50.844;3.228;2023-09-19T10:30:52;23.20;49.30
82993;DHT22;72811;50.844;3.228;2023-09-19T10:33:20;23.10;49.10
82993;DHT22;72811;50.844;3.228;2023-09-19T10:35:48;23.00;49.40
82993;DHT22;72811;50.844;3.228;2023-09-19T10:38:19;23.10;49.50
82993;DHT22;72811;50.844;3.228;2023-09-19T10:40:50;22.70;50.70
82993;DHT22;72811;50.844;3.228;2023-09-19T10:43:16;22.70;50.50
82993;DHT22;72811;50.844;3.228;2023-09-19T10:45:44;23.10;49.70
82993;DHT22;72811;50.844;3.228;2023-09-19T10:48:12;22.70;50.80
82993;DHT22;72811;50.844;3.228;2023-09-19T10:51:06;22.50;51.00
82993;DHT22;72811;50.844;3.228;2023-09-19T10:53:51;22.20;52.00
82993;DHT22;72811;50.844;3.228;2023-09-19T10:56:29;21.70;54.40
82993;DHT22;72811;50.844;3.228;2023-09-19T10:59:11;21.20;55.20
82993;DHT22;72811;50.844;3.228;2023-09-19T11:02:17;21.20;55.50
82993;DHT22;72811;50.844;3.228;2023-09-19T11:04:43;21.90;53.00
82993;DHT22;72811;50.844;3.228;2023-09-19T11:07:12;21.60;54.60
82993;DHT22;72811;50.844;3.228;2023-09-19T11:09:53;21.60;54.40
82993;DHT22;72811;50.844;3.228;2023-09-19T11:15:07;22.20;53.20
82993;DHT22;72811;50.844;3.228;2023-09-19T11:17:36;22.10;53.20
82993;DHT22;72811;50.844;3.228;2023-09-19T11:30:43;21.00;57.00
82993;DHT22;72811;50.844;3.228;2023-09-19T11:33:23;20.80;58.20
82993;DHT22;72811;50.844;3.228;2023-09-19T11:41:38;21.60;55.10
82993;DHT22;72811;50.844;3.228;2023-09-19T11:49:27;20.40;58.70
82993;DHT22;72811;50.844;3.228;2023-09-19T11:51:55;20.40;59.10
82993;DHT22;72811;50.844;3.228;2023-09-19T11:54:22;20.20;58.50
82993;DHT22;72811;50.844;3.228;2023-09-19T11:56:51;20.20;58.60
82993;DHT22;72811;50.844;3.228;2023-09-19T12:02:00;19.90;59.20
82993;DHT22;72811;50.844;3.228;2023-09-19T12:04:43;20.10;59.60
82993;DHT22;72811;50.844;3.228;2023-09-19T12:07:12;20.90;57.40
82993;DHT22;72811;50.844;3.228;2023-09-19T12:12:19;20.90;57.10
82993;DHT22;72811;50.844;3.228;2023-09-19T12:14:49;21.20;55.80
82993;DHT22;72811;50.844;3.228;2023-09-19T12:17:15;21.10;56.00
82993;DHT22;72811;50.844;3.228;2023-09-19T12:19:50;20.70;57.40
82993;DHT22;72811;50.844;3.228;2023-09-19T12:22:23;20.80;57.50
82993;DHT22;72811;50.844;3.228;2023-09-19T12:24:50;21.10;56.10
82993;DHT22;72811;50.844;3.228;2023-09-19T12:27:20;21.00;56.20
82993;DHT22;72811;50.844;3.228;2023-09-19T12:29:49;21.10;56.80
82993;DHT22;72811;50.844;3.228;2023-09-19T12:32:16;21.20;56.80
82993;DHT22;72811;50.844;3.228;2023-09-19T12:34:53;20.90;57.70
82993;DHT22;72811;50.844;3.228;2023-09-19T12:37:20;20.50;57.60
82993;DHT22;72811;50.844;3.228;2023-09-19T12:39:53;20.40;57.90
82993;DHT22;72811;50.844;3.228;2023-09-19T12:42:42;20.50;58.50
82993;DHT22;72811;50.844;3.228;2023-09-19T12:45:11;20.50;58.40
82993;DHT22;72811;50.844;3.228;2023-09-19T12:47:39;20.40;58.20
82993;DHT22;72811;50.844;3.228;2023-09-19T12:52:40;20.80;57.50
82993;DHT22;72811;50.844;3.228;2023-09-19T12:55:06;20.70;57.50
82993;DHT22;72811;50.844;3.228;2023-09-19T12:57:36;20.60;58.10
82993;DHT22;72811;50.844;3.228;2023-09-19T13:00:03;20.60;58.10
82993;DHT22;72811;50.844;3.228;2023-09-19T13:02:31;20.60;57.40
82993;DHT22;72811;50.844;3.228;2023-09-19T13:04:58;20.40;57.90
82993;DHT22;72811;50.844;3.228;2023-09-19T13:07:42;20.60;58.30
82993;DHT22;72811;50.844;3.228;2023-09-19T13:10:18;20.90;57.40
82993;DHT22;72811;50.844;3.228;2023-09-19T13:12:49;20.70;58.10
82993;DHT22;72811;50.844;3.228;2023-09-19T13:15:15;20.60;58.50
82993;DHT22;72811;50.844;3.228;2023-09-19T13:17:49;20.50;58.30
82993;DHT22;72811;50.844;3.228;2023-09-19T13:20:25;20.50;58.50
82993;DHT22;72811;50.844;3.228;2023-09-19T13:22:53;20.40;58.20
82993;DHT22;72811;50.844;3.228;2023-09-19T13:25:21;20.30;58.30
82993;DHT22;72811;50.844;3.228;2023-09-19T13:27:53;20.40;58.40
82993;DHT22;72811;50.844;3.228;2023-09-19T13:30:26;20.50;58.50
82993;DHT22;72811;50.844;3.228;2023-09-19T13:33:03;20.40;59.20
82993;DHT22;72811;50.844;3.228;2023-09-19T13:35:29;20.30;59.10
82993;DHT22;72811;50.844;3.228;2023-09-19T13:37:55;20.30;59.30
82993;DHT22;72811;50.844;3.228;2023-09-19T13:40:21;20.30;59.30
82993;DHT22;72811;50.844;3.228;2023-09-19T13:42:47;20.20;58.80
82993;DHT22;72811;50.844;3.228;2023-09-19T13:45:12;20.10;59.10
82993;DHT22;72811;50.844;3.228;2023-09-19T13:47:41;20.10;59.80
82993;DHT22;72811;50.844;3.228;2023-09-19T13:50:10;19.90;59.60
82993;DHT22;72811;50.844;3.228;2023-09-19T13:52:36;19.90;59.80
82993;DHT22;72811;50.844;3.228;2023-09-19T13:55:03;19.90;59.80
82993;DHT22;72811;50.844;3.228;2023-09-19T13:57:28;19.80;60.10
82993;DHT22;72811;50.844;3.228;2023-09-19T13:59:56;19.70;60.70
82993;DHT22;72811;50.844;3.228;2023-09-19T14:02:22;19.80;60.90
82993;DHT22;72811;50.844;3.228;2023-09-19T14:04:49;19.70;61.30
82993;DHT22;72811;50.844;3.228;2023-09-19T14:07:15;19.60;61.60
82993;DHT22;72811;50.844;3.228;2023-09-19T14:09:43;19.60;62.10
82993;DHT22;72811;50.844;3.228;2023-09-19T14:12:09;19.70;61.80
82993;DHT22;72811;50.844;3.228;2023-09-19T14:14:45;20.00;60.60
82993;DHT22;72811;50.844;3.228;2023-09-19T14:17:11;20.20;60.40
82993;DHT22;72811;50.844;3.228;2023-09-19T14:19:37;20.40;60.90
82993;DHT22;72811;50.844;3.228;2023-09-19T14:22:03;20.40;59.50
82993;DHT22;72811;50.844;3.228;2023-09-19T14:24:33;20.40;59.90
82993;DHT22;72811;50.844;3.228;2023-09-19T14:26:59;20.30;60.20
82993;DHT22;72811;50.844;3.228;2023-09-19T14:29:25;20.00;60.60
82993;DHT22;72811;50.844;3.228;2023-09-19T14:31:52;20.00;60.30
82993;DHT22;72811;50.844;3.228;2023-09-19T14:34:17;20.00;60.90
82993;DHT22;72811;50.844;3.228;2023-09-19T14:36:45;20.00;61.00
82993;DHT22;72811;50.844;3.228;2023-09-19T14:39:10;19.90;61.90
82993;DHT22;72811;50.844;3.228;2023-09-19T14:41:36;19.80;62.20
82993;DHT22;72811;50.844;3.228;2023-09-19T14:44:05;19.80;61.90
82993;DHT22;72811;50.844;3.228;2023-09-19T14:46:35;19.70;61.60
82993;DHT22;72811;50.844;3.228;2023-09-19T14:49:04;19.70;61.70
82993;DHT22;72811;50.844;3.228;2023-09-19T14:51:30;19.60;62.40
82993;DHT22;72811;50.844;3.228;2023-09-19T14:54:01;19.60;63.00
82993;DHT22;72811;50.844;3.228;2023-09-19T14:56:27;19.60;62.50
82993;DHT22;72811;50.844;3.228;2023-09-19T14:58:55;19.70;62.80
82993;DHT22;72811;50.844;3.228;2023-09-19T15:01:21;19.70;62.70
82993;DHT22;72811;50.844;3.228;2023-09-19T15:03:48;19.60;62.80
82993;DHT22;72811;50.844;3.228;2023-09-19T15:06:16;19.40;64.40
82993;DHT22;72811;50.844;3.228;2023-09-19T15:08:47;19.30;64.90
82993;DHT22;72811;50.844;3.228;2023-09-19T15:11:17;19.20;65.30
82993;DHT22;72811;50.844;3.228;2023-09-19T15:13:44;19.20;66.10
82993;DHT22;72811;50.844;3.228;2023-09-19T15:16:10;19.20;66.00
82993;DHT22;72811;50.844;3.228;2023-09-19T15:18:39;19.20;65.50
82993;DHT22;72811;50.844;3.228;2023-09-19T15:21:07;19.10;66.50
82993;DHT22;72811;50.844;3.228;2023-09-19T15:23:34;19.10;66.30
82993;DHT22;72811;50.844;3.228;2023-09-19T15:26:01;19.20;66.70
82993;DHT22;72811;50.844;3.228;2023-09-19T15:28:32;19.10;68.20
82993;DHT22;72811;50.844;3.228;2023-09-19T15:31:00;19.10;66.40
82993;DHT22;72811;50.844;3.228;2023-09-19T15:33:30;19.10;67.10
82993;DHT22;72811;50.844;3.228;2023-09-19T15:36:06;19.00;66.80
82993;DHT22;72811;50.844;3.228;2023-09-19T15:41:23;19.00;66.90
82993;DHT22;72811;50.844;3.228;2023-09-19T15:43:51;19.00;67.30
82993;DHT22;72811;50.844;3.228;2023-09-19T15:46:17;18.90;69.10
82993;DHT22;72811;50.844;3.228;2023-09-19T15:48:44;18.70;71.00
82993;DHT22;72811;50.844;3.228;2023-09-19T15:51:11;18.60;72.40
82993;DHT22;72811;50.844;3.228;2023-09-19T15:53:51;18.40;72.50
82993;DHT22;72811;50.844;3.228;2023-09-19T15:56:20;18.10;77.20
82993;DHT22;72811;50.844;3.228;2023-09-19T15:58:48;18.00;77.50
82993;DHT22;72811;50.844;3.228;2023-09-19T16:01:15;17.90;77.20
82993;DHT22;72811;50.844;3.228;2023-09-19T16:03:47;17.70;79.30
82993;DHT22;72811;50.844;3.228;2023-09-19T16:06:14;17.50;80.60
82993;DHT22;72811;50.844;3.228;2023-09-19T16:08:51;17.50;81.20
82993;DHT22;72811;50.844;3.228;2023-09-19T16:11:26;17.50;81.80
82993;DHT22;72811;50.844;3.228;2023-09-19T16:13:54;17.40;83.00
82993;DHT22;72811;50.844;3.228;2023-09-19T16:16:21;17.20;84.20
82993;DHT22;72811;50.844;3.228;2023-09-19T16:18:58;17.10;85.10
82993;DHT22;72811;50.844;3.228;2023-09-19T16:21:27;17.10;85.70
82993;DHT22;72811;50.844;3.228;2023-09-19T16:23:56;17.10;85.90
82993;DHT22;72811;50.844;3.228;2023-09-19T16:26:24;17.00;85.30
82993;DHT22;72811;50.844;3.228;2023-09-19T16:28:53;17.00;84.40
82993;DHT22;72811;50.844;3.228;2023-09-19T16:31:20;16.90;87.10
82993;DHT22;72811;50.844;3.228;2023-09-19T16:33:47;16.90;86.60
82993;DHT22;72811;50.844;3.228;2023-09-19T16:36:16;17.00;85.70
82993;DHT22;72811;50.844;3.228;2023-09-19T16:38:49;17.00;84.80
82993;DHT22;72811;50.844;3.228;2023-09-19T16:41:17;17.00;85.20